Aérodrome :
LOGIN :

S'inscrire | Disclaimer

   EN    FR    IT 

 










Légende :    VFR   VFR Marginal   IFR   IFR Intensif   IFR Très Intensif
Visi : 
Plafond : 
>= 8 km
>= 3000ft
5 à 8 km
1000 à 3000 ft
1500m à 5 km
500 à 1000 ft
800 à 1500m
200 à 500 ft
< 800m
< 200 ft
Symboles :   Orages  Brouillard  Fortes neiges  Fortes précipitations  Vent > 20 kt
SIGMETs :   Divers  Orages  Givrage  Turbulence  Onde Orograph.  Cendres Volcan.






- Altitude de l'aérodrome : 375 ft
- Code IATA : MST


EHBK - Maastricht Aachen

DERNIER METAR :
  • 122025Z AUTO 35008KT 310V020 9999 NSC 16/09 Q1025 NOSIG

METARs EXPIRÉS :
  • 121955Z AUTO 35009KT 320V030 9999 NSC 17/09 Q1024 NOSIG
  • 121925Z AUTO 35008KT 310V030 9999 NSC 18/09 Q1024 NOSIG
  • 121855Z AUTO 32008KT 9999 NSC 19/09 Q1024 NOSIG
  • 121825Z AUTO 34009KT 290V010 9999 NSC 20/09 Q1023 NOSIG
  • 121755Z AUTO 33008KT 9999 NSC 20/09 Q1023 NOSIG

TAF TAF EHBK
Valide du 12 à 18h jusqu'au 14 à 00h UTC


121715Z 1218/1324 33010KT CAVOK
BECMG 1302/1305 02003KT



MET'MAP, la Météo Aéronautique d'un coup d'oeil ! - Copyright ORBIFLY Décembre 2007 - Disclaimer

ORBIFLY MET'MAP TEAM :

Programmation & Développement : Alexandra Zaïnal
Sur une idée originale de : Baudouin d'Aumeries
Assistance à la programmation : Marc-Olivier Méhu
Soutien technique & logistique : Manuel Goepfert

Contact : metmap@orbifly.com




SOURCES & CREDITS :

   NOAA